Time;durP1;ratioP1;P1;durP2;ratioP2;P2;SDS_P1;SDS_P2;PMS_P1;PMS_P2;Temp;Humidity;BMP_temperature;BMP_pressure;BME280_temperature;BME280_humidity;BME280_pressure;Samples;Min_cycle;Max_cycle;Signal;HPM_P1;HPM_P2
2022/06/24 00:00:04;;;;;;;7.32;3.65;;;;;;;12.87;76.95;96362.84;5053298;28;20437;-60
2022/06/24 00:02:31;;;;;;;5.13;3.25;;;;;;;12.87;77.09;96360.22;5053363;28;20502;-61
2022/06/24 00:05:00;;;;;;;6.43;3.67;;;;;;;12.89;76.63;96358.34;5053173;28;20052;-61
2022/06/24 00:07:27;;;;;;;3.78;3.13;;;;;;;12.87;76.46;96354.09;5052948;28;20059;-60
2022/06/24 00:09:55;;;;;;;6.00;3.40;;;;;;;12.87;76.09;96362.84;5053087;28;20081;-60
2022/06/24 00:12:27;;;;;;;4.32;3.20;;;;;;;12.85;76.07;96359.41;5053049;28;20107;-61
2022/06/24 00:14:59;;;;;;;8.18;3.50;;;;;;;12.88;76.00;96355.78;5053027;28;20045;-61
2022/06/24 00:17:32;;;;;;;3.33;2.78;;;;;;;12.88;75.97;96355.78;5052967;28;20049;-61
2022/06/24 00:20:01;;;;;;;9.75;2.75;;;;;;;12.86;75.83;96360.28;5052979;28;20051;-61
2022/06/24 00:22:30;;;;;;;6.22;2.88;;;;;;;12.83;75.74;96358.66;5052896;28;20132;-61
2022/06/24 00:25:11;;;;;;;6.60;3.45;;;;;;;12.82;75.98;96356.13;5052886;28;20053;-61
2022/06/24 00:27:41;;;;;;;3.10;2.80;;;;;;;12.75;76.31;96348.56;5053087;28;20068;-61
2022/06/24 00:30:11;;;;;;;4.20;3.10;;;;;;;12.71;75.98;96352.25;5052861;28;20041;-61
2022/06/24 00:32:38;;;;;;;6.82;3.05;;;;;;;12.66;76.18;96350.75;5052811;28;20060;-61
2022/06/24 00:35:09;;;;;;;3.95;3.00;;;;;;;12.55;76.46;96352.13;5052774;28;20459;-61
2022/06/24 00:37:38;;;;;;;4.05;3.15;;;;;;;12.45;76.32;96341.25;5052868;28;20090;-61
2022/06/24 00:40:24;;;;;;;4.50;3.42;;;;;;;12.43;76.45;96337.84;5052746;28;20131;-61
2022/06/24 00:42:53;;;;;;;7.10;3.17;;;;;;;12.42;76.76;96344.03;5052991;28;20045;-61
2022/06/24 00:45:29;;;;;;;4.93;3.30;;;;;;;12.39;76.55;96333.69;5052684;28;20053;-61
2022/06/24 00:47:57;;;;;;;3.00;2.70;;;;;;;12.41;76.32;96346.72;5052583;28;20088;-61
2022/06/24 00:50:26;;;;;;;3.35;3.05;;;;;;;12.32;76.36;96334.91;5052643;28;20081;-61
2022/06/24 00:52:56;;;;;;;3.28;2.97;;;;;;;12.25;76.86;96336.97;5052649;28;20056;-61
2022/06/24 00:55:27;;;;;;;3.17;2.70;;;;;;;12.25;76.55;96347.44;5052708;28;20049;-60
2022/06/24 00:57:55;;;;;;;;;;;;;;;12.22;77.10;96343.22;5053234;28;20098;-61
2022/06/24 01:00:24;;;;;;;4.38;3.08;;;;;;;12.04;77.35;96336.19;5052684;28;19990;-60
2022/06/24 01:02:58;;;;;;;3.05;2.50;;;;;;;12.05;77.41;96346.63;5052583;28;20088;-61
2022/06/24 01:05:27;;;;;;;5.13;3.25;;;;;;;12.04;77.79;96344.91;5052683;28;20095;-61
2022/06/24 01:07:54;;;;;;;5.88;3.40;;;;;;;11.98;77.83;96343.41;5056436;28;20098;-61
2022/06/24 01:10:21;;;;;;;4.63;3.10;;;;;;;11.91;78.41;96331.53;5056469;28;20482;-61
2022/06/24 01:12:48;;;;;;;4.25;2.72;;;;;;;11.88;78.06;96329.03;5056334;28;20041;-61
2022/06/24 01:15:17;;;;;;;2.95;2.65;;;;;;;11.95;77.97;96334.88;5056263;28;20398;-61
2022/06/24 01:17:44;;;;;;;3.60;2.55;;;;;;;11.92;78.31;96329.75;5056226;28;20439;-61
2022/06/24 01:20:12;;;;;;;4.32;3.25;;;;;;;11.96;78.69;96329.56;5056221;28;20041;-61
2022/06/24 01:22:42;;;;;;;5.35;3.05;;;;;;;11.97;78.87;96333.00;5056226;28;20525;-61
2022/06/24 01:25:10;;;;;;;3.95;2.80;;;;;;;12.00;78.54;96332.88;5056109;28;20499;-61
2022/06/24 01:27:37;;;;;;;4.85;3.40;;;;;;;12.02;78.23;96328.41;5055983;28;20048;-61
2022/06/24 01:30:05;;;;;;;3.70;2.78;;;;;;;12.09;77.76;96329.84;5056165;28;20091;-60
2022/06/24 01:32:34;;;;;;;4.35;2.65;;;;;;;12.07;77.27;96328.22;5055877;28;20410;-61
2022/06/24 01:35:01;;;;;;;3.33;2.53;;;;;;;12.10;76.84;96328.09;5055818;28;20041;-61
2022/06/24 01:37:28;;;;;;;4.38;2.33;;;;;;;12.08;76.83;96336.03;5055971;28;20529;-61
2022/06/24 01:39:57;;;;;;;7.38;3.10;;;;;;;12.08;76.70;96330.78;5055967;28;20076;-61
2022/06/24 01:42:24;;;;;;;7.43;2.42;;;;;;;12.10;76.62;96333.31;5055890;28;20108;-61
2022/06/24 01:44:51;;;;;;;2.72;2.35;;;;;;;12.03;76.53;96334.47;5055793;28;20084;-61
2022/06/24 01:47:18;;;;;;;4.05;2.42;;;;;;;12.00;76.42;96336.34;5055681;28;20120;-61
2022/06/24 01:49:45;;;;;;;4.15;3.00;;;;;;;11.97;75.91;96339.09;5055542;28;20080;-61
2022/06/24 01:52:12;;;;;;;5.85;3.38;;;;;;;11.81;76.95;96344.22;5055682;28;20045;-61
2022/06/24 01:54:39;;;;;;;5.65;2.60;;;;;;;11.77;77.28;96344.44;5055595;28;20053;-60
2022/06/24 01:57:07;;;;;;;3.97;3.45;;;;;;;11.69;76.90;96352.63;5055513;28;20127;-61
2022/06/24 01:59:34;;;;;;;4.03;2.90;;;;;;;11.62;77.52;96349.47;5055460;28;20470;-61
2022/06/24 02:02:01;;;;;;;5.32;3.03;;;;;;;11.58;77.53;96355.72;5055444;28;20125;-61
2022/06/24 02:04:28;;;;;;;3.42;3.08;;;;;;;11.59;77.38;96352.22;5055468;28;20060;-61
2022/06/24 02:06:56;;;;;;;3.40;2.60;;;;;;;11.46;77.54;96350.13;5055405;28;20049;-62
2022/06/24 02:09:23;;;;;;;7.47;3.30;;;;;;;11.43;77.97;96347.66;5055262;28;20049;-61
2022/06/24 02:14:36;;;;;;;7.28;3.42;;;;;;;11.35;78.25;96345.38;5055195;28;20059;-61
2022/06/24 02:17:04;;;;;;;4.22;3.33;;;;;;;11.38;78.41;96342.59;5054768;28;20045;-61
2022/06/24 02:19:32;;;;;;;4.53;2.80;;;;;;;11.39;78.24;96338.22;5055194;28;20084;-61
2022/06/24 02:21:59;;;;;;;10.18;2.80;;;;;;;11.44;78.07;96351.97;5055214;28;20045;-62
2022/06/24 02:24:27;;;;;;;6.00;2.85;;;;;;;11.44;77.77;96341.47;5055013;28;20077;-62
2022/06/24 02:26:54;;;;;;;5.78;3.42;;;;;;;11.38;77.71;96342.59;5054928;28;20053;-62
2022/06/24 02:29:21;;;;;;;5.32;2.83;;;;;;;11.40;77.35;96337.31;5054749;28;20502;-62
2022/06/24 02:31:50;;;;;;;4.43;2.97;;;;;;;11.40;77.37;96331.22;5054836;28;20083;-61
2022/06/24 02:34:17;;;;;;;7.13;2.97;;;;;;;11.43;77.04;96328.44;5054582;28;20094;-62
2022/06/24 02:36:44;;;;;;;6.28;3.38;;;;;;;11.37;76.81;96327.81;5054765;28;20047;-61
2022/06/24 02:39:11;;;;;;;10.10;4.05;;;;;;;11.33;77.66;96320.16;5054755;28;20076;-62
2022/06/24 02:41:38;;;;;;;4.25;3.90;;;;;;;11.33;77.85;96320.16;5054687;28;20049;-62
2022/06/24 02:44:06;;;;;;;6.13;3.50;;;;;;;11.31;78.04;96312.38;5054696;28;20049;-62
2022/06/24 02:46:32;;;;;;;4.60;3.58;;;;;;;11.32;78.18;96306.22;5054931;28;20045;-61
2022/06/24 02:49:01;;;;;;;6.63;3.15;;;;;;;11.33;78.29;96313.19;5054641;28;20518;-62
2022/06/24 02:51:28;;;;;;;6.03;3.55;;;;;;;11.33;78.44;96307.06;5054589;28;20478;-62
2022/06/24 02:53:55;;;;;;;6.22;3.17;;;;;;;11.35;78.89;96305.25;5054461;28;20100;-61
2022/06/24 02:56:23;;;;;;;4.95;3.03;;;;;;;11.40;78.93;96316.34;5053934;28;20045;-62
2022/06/24 02:58:50;;;;;;;7.82;3.53;;;;;;;11.44;79.09;96315.28;5054355;28;20099;-62
2022/06/24 03:01:18;;;;;;;5.30;3.63;;;;;;;11.49;79.00;96307.22;5054251;28;20087;-62
2022/06/24 03:03:45;;;;;;;4.43;3.30;;;;;;;11.56;79.10;96311.25;5054472;28;20067;-61
2022/06/24 03:06:13;;;;;;;6.40;3.10;;;;;;;11.63;78.67;96320.53;5054149;28;20494;-62
2022/06/24 03:08:40;;;;;;;10.50;3.33;;;;;;;11.68;78.55;96315.09;5054069;28;20052;-62
2022/06/24 03:11:08;;;;;;;12.25;3.65;;;;;;;11.74;78.81;96319.22;5054180;28;20052;-62
2022/06/24 03:13:35;;;;;;;4.68;3.33;;;;;;;11.83;79.46;96320.56;5054149;28;20053;-62
2022/06/24 03:16:02;;;;;;;6.28;2.95;;;;;;;11.88;79.86;96324.66;5054152;28;20149;-62
2022/06/24 03:18:29;;;;;;;3.40;3.10;;;;;;;12.00;79.14;96323.25;5054114;28;20051;-61
2022/06/24 03:20:56;;;;;;;4.88;3.53;;;;;;;12.06;79.23;96314.22;5054024;28;20057;-61
2022/06/24 03:23:25;;;;;;;3.78;3.10;;;;;;;12.22;79.73;96324.84;5054009;28;20127;-62
2022/06/24 03:25:52;;;;;;;5.63;3.58;;;;;;;12.39;79.92;96325.81;5053901;28;20434;-62
2022/06/24 03:28:19;;;;;;;10.43;3.55;;;;;;;12.55;80.07;96319.81;5053215;28;20049;-61
2022/06/24 03:30:46;;;;;;;5.03;3.60;;;;;;;12.89;79.37;96326.00;5053737;28;20576;-62
2022/06/24 03:33:13;;;;;;;3.45;2.60;;;;;;;13.27;78.69;96324.94;5053514;28;20045;-62
2022/06/24 03:35:41;;;;;;;4.13;2.85;;;;;;;13.74;77.13;96319.91;5053865;28;20099;-61
2022/06/24 03:38:08;;;;;;;7.88;2.83;;;;;;;14.18;75.56;96325.41;5053672;28;20107;-60
2022/06/24 03:40:36;;;;;;;4.13;2.90;;;;;;;14.63;74.12;96321.09;5053623;28;20052;-61
2022/06/24 03:43:04;;;;;;;5.28;2.33;;;;;;;15.10;73.01;96317.56;5053531;28;20482;-60
2022/06/24 03:45:31;;;;;;;3.25;2.20;;;;;;;15.56;71.40;96321.81;5053464;28;20045;-60
2022/06/24 03:47:59;;;;;;;3.63;2.13;;;;;;;16.00;69.80;96319.16;5053511;28;20052;-60
2022/06/24 03:50:26;;;;;;;4.85;2.22;;;;;;;16.41;68.98;96317.44;5053339;28;20411;-60
2022/06/24 03:52:53;;;;;;;4.30;1.70;;;;;;;16.85;67.53;96323.38;5053355;28;20141;-60
2022/06/24 03:55:20;;;;;;;3.45;2.00;;;;;;;17.29;66.28;96317.84;5053318;28;20045;-60
2022/06/24 03:57:49;;;;;;;4.20;2.33;;;;;;;17.67;65.42;96318.78;5053194;28;20071;-60
2022/06/24 04:00:17;;;;;;;2.45;1.70;;;;;;;18.06;64.42;96318.66;5053336;28;20049;-60
2022/06/24 04:02:44;;;;;;;5.88;2.08;;;;;;;18.52;63.06;96318.97;5053241;28;20049;-60
2022/06/24 04:05:12;;;;;;;2.28;2.00;;;;;;;18.89;62.24;96316.22;5053250;28;20052;-60
2022/06/24 04:07:39;;;;;;;3.33;2.00;;;;;;;19.19;61.20;96319.31;5053349;28;20044;-60
2022/06/24 04:10:07;;;;;;;3.33;1.90;;;;;;;19.52;60.58;96320.31;5053119;28;20049;-60
2022/06/24 04:12:35;;;;;;;3.00;1.90;;;;;;;19.90;59.40;96322.72;5053100;28;20087;-60
2022/06/24 04:15:17;;;;;;;2.65;2.00;;;;;;;20.22;58.52;96324.63;5053100;28;20502;-60
2022/06/24 04:17:45;;;;;;;5.40;1.80;;;;;;;20.52;57.57;96330.22;5053022;28;20126;-60
2022/06/24 04:20:14;;;;;;;2.42;1.70;;;;;;;20.79;56.78;96329.75;5053120;28;20615;-60
2022/06/24 04:22:41;;;;;;;3.30;1.70;;;;;;;20.96;55.79;96335.53;5053041;28;20135;-60
2022/06/24 04:25:10;;;;;;;2.83;1.65;;;;;;;21.12;56.27;96334.22;5052954;28;20167;-60
2022/06/24 04:27:38;;;;;;;4.68;1.67;;;;;;;21.51;55.51;96331.81;5052910;28;20461;-60
2022/06/24 04:30:08;;;;;;;3.40;1.88;;;;;;;21.80;54.41;96341.78;5052832;28;20059;-60
2022/06/24 04:32:36;;;;;;;4.68;1.85;;;;;;;21.99;55.30;96331.31;5052858;28;20041;-60
2022/06/24 04:35:03;;;;;;;5.45;1.85;;;;;;;22.25;53.89;96338.81;5052652;28;20445;-61
2022/06/24 04:37:30;;;;;;;3.90;1.58;;;;;;;22.55;53.50;96335.22;5052787;28;20076;-60
2022/06/24 04:39:58;;;;;;;2.88;1.77;;;;;;;22.86;52.80;96336.97;5053984;28;20049;-59
2022/06/24 04:42:25;;;;;;;2.15;1.55;;;;;;;23.18;52.50;96326.97;5056949;28;20144;-60
2022/06/24 04:44:53;;;;;;;3.08;1.50;;;;;;;23.45;51.97;96334.22;5056930;28;20119;-60
2022/06/24 04:47:22;;;;;;;4.15;1.70;;;;;;;23.70;50.63;96339.94;5056843;28;20506;-60
2022/06/24 04:49:50;;;;;;;2.50;1.65;;;;;;;24.02;50.17;96347.69;5056791;28;20057;-59
2022/06/24 04:52:17;;;;;;;2.30;1.70;;;;;;;24.25;49.22;96350.81;5056824;28;20053;-61
2022/06/24 04:54:44;;;;;;;2.55;1.58;;;;;;;24.45;48.80;96351.53;5056853;28;20048;-60
2022/06/24 04:57:14;;;;;;;3.10;1.70;;;;;;;24.65;47.50;96346.03;5056736;28;20048;-61
2022/06/24 04:59:41;;;;;;;2.13;1.80;;;;;;;24.85;47.69;96335.19;5056697;28;20049;-60
2022/06/24 05:02:09;;;;;;;3.72;2.03;;;;;;;24.95;46.48;96341.34;5056759;28;20128;-61
2022/06/24 05:04:37;;;;;;;2.78;2.00;;;;;;;25.07;45.83;96339.28;5056481;28;20084;-61
2022/06/24 05:07:06;;;;;;;4.18;1.70;;;;;;;25.09;47.15;96339.13;5056556;28;20067;-60
2022/06/24 05:09:33;;;;;;;3.15;1.70;;;;;;;25.24;44.79;96337.56;5056432;28;20056;-60
2022/06/24 05:12:00;;;;;;;4.07;2.00;;;;;;;25.48;43.91;96343.25;5056428;28;20041;-60
2022/06/24 05:14:27;;;;;;;2.28;1.55;;;;;;;25.74;43.98;96339.75;5056425;28;20084;-60
2022/06/24 05:16:55;;;;;;;5.78;1.50;;;;;;;25.95;43.19;96342.00;5056385;28;20041;-60
2022/06/24 05:19:22;;;;;;;3.15;1.65;;;;;;;26.20;40.64;96335.91;5056701;28;20132;-60
2022/06/24 05:21:50;;;;;;;4.53;1.65;;;;;;;26.41;40.56;96348.94;5056313;28;20083;-60
2022/06/24 05:24:18;;;;;;;1.90;1.40;;;;;;;26.72;41.83;96345.63;5056272;28;20056;-60
2022/06/24 05:26:46;;;;;;;2.00;1.50;;;;;;;26.99;40.46;96350.88;5056172;28;20110;-60
2022/06/24 05:29:14;;;;;;;4.50;1.52;;;;;;;27.28;41.71;96349.56;5056084;28;20148;-61
2022/06/24 05:31:41;;;;;;;1.98;1.50;;;;;;;27.50;40.40;96356.06;5056190;28;20052;-60
2022/06/24 05:34:08;;;;;;;8.32;1.52;;;;;;;27.71;41.95;96346.66;5055754;28;20059;-60
2022/06/24 05:36:36;;;;;;;2.95;1.60;;;;;;;27.93;41.21;96352.28;5055880;28;20049;-60
2022/06/24 05:39:05;;;;;;;4.20;1.67;;;;;;;28.18;41.87;96351.38;5056374;28;20056;-61
2022/06/24 05:41:33;;;;;;;3.53;1.58;;;;;;;28.35;41.81;96361.06;5056065;28;20057;-61
2022/06/24 05:44:00;;;;;;;4.38;1.55;;;;;;;28.56;39.86;96359.59;5055993;28;20041;-61
2022/06/24 05:46:28;;;;;;;3.28;1.85;;;;;;;28.78;38.97;96364.34;5055954;28;20049;-60
2022/06/24 05:48:56;;;;;;;3.83;1.42;;;;;;;28.93;37.92;96354.53;5055740;28;20414;-60
2022/06/24 05:51:23;;;;;;;3.22;1.42;;;;;;;29.19;38.23;96364.09;5054982;28;20475;-62
2022/06/24 05:56:36;;;;;;;2.88;1.63;;;;;;;29.60;39.68;96362.06;5055734;28;20175;-60
2022/06/24 05:59:04;;;;;;;4.90;1.60;;;;;;;29.80;37.62;96362.38;5055593;28;20107;-61
2022/06/24 06:01:31;;;;;;;3.28;1.40;;;;;;;29.96;37.51;96365.91;5055460;28;20045;-61
2022/06/24 06:03:59;;;;;;;5.65;1.63;;;;;;;30.10;35.93;96362.34;5055633;28;20049;-60
2022/06/24 06:06:26;;;;;;;3.72;1.50;;;;;;;30.08;36.08;96359.03;5055548;28;20049;-60
2022/06/24 06:08:53;;;;;;;4.10;1.67;;;;;;;30.12;38.24;96365.72;5055515;28;20041;-60
2022/06/24 06:11:23;;;;;;;3.85;1.73;;;;;;;30.29;36.90;96364.69;5055407;28;20545;-60
2022/06/24 06:13:53;;;;;;;2.35;1.50;;;;;;;30.35;33.79;96359.41;5055518;28;20414;-60
2022/06/24 06:16:22;;;;;;;8.63;1.40;;;;;;;30.58;34.26;96369.19;5055510;28;20478;-60
2022/06/24 06:18:49;;;;;;;5.85;1.50;;;;;;;30.81;31.51;96370.09;5055336;28;20049;-60
2022/06/24 06:21:17;;;;;;;4.75;1.30;;;;;;;30.92;29.93;96366.06;5055157;28;20045;-61
2022/06/24 06:23:45;;;;;;;2.95;1.30;;;;;;;31.02;30.48;96364.72;5055149;28;20404;-60
2022/06/24 06:26:13;;;;;;;3.97;1.58;;;;;;;31.16;31.13;96362.16;5055151;28;20045;-61
2022/06/24 06:28:41;;;;;;;1.92;1.40;;;;;;;30.85;29.12;96360.59;5055135;28;20052;-61
2022/06/24 06:31:10;;;;;;;3.53;1.40;;;;;;;30.85;30.36;96363.31;5054954;28;20052;-61
2022/06/24 06:33:37;;;;;;;4.63;2.13;;;;;;;30.92;30.93;96366.91;5054677;28;20057;-61
2022/06/24 06:36:05;;;;;;;1.30;1.20;;;;;;;31.07;32.61;96364.16;5054845;28;20049;-61
2022/06/24 06:38:33;;;;;;;3.50;1.10;;;;;;;31.15;31.52;96360.44;5054823;28;20052;-61
2022/06/24 06:41:00;;;;;;;1.90;1.40;;;;;;;31.11;30.04;96361.88;5054792;28;20130;-61
2022/06/24 06:43:28;;;;;;;4.60;1.40;;;;;;;31.17;28.55;96352.16;5054746;28;20491;-61
2022/06/24 06:45:55;;;;;;;4.07;1.40;;;;;;;30.89;27.72;96359.19;5054720;28;20103;-60
2022/06/24 06:48:25;;;;;;;4.40;1.50;;;;;;;30.43;30.09;96361.13;5054764;28;20076;-61
2022/06/24 06:50:55;;;;;;;4.50;2.00;;;;;;;30.56;28.61;96365.88;5054587;28;20055;-61
2022/06/24 06:53:23;;;;;;;2.03;1.10;;;;;;;30.87;27.53;96369.31;5054573;28;20045;-61
2022/06/24 06:55:51;;;;;;;1.98;1.30;;;;;;;31.07;27.29;96369.53;5054870;28;20102;-61
2022/06/24 06:58:19;;;;;;;3.13;1.38;;;;;;;31.20;29.17;96371.53;5054553;28;20092;-60
2022/06/24 07:00:46;;;;;;;4.00;1.63;;;;;;;31.28;30.00;96373.25;5054480;28;20048;-60
2022/06/24 07:03:14;;;;;;;2.80;1.40;;;;;;;31.35;28.43;96367.94;5053587;28;20466;-61
2022/06/24 07:05:44;;;;;;;4.32;1.58;;;;;;;31.43;28.41;96358.84;5054139;28;20099;-60
2022/06/24 07:08:11;;;;;;;3.67;1.60;;;;;;;31.30;27.32;96360.38;5054238;28;20045;-60
2022/06/24 07:10:39;;;;;;;4.18;1.50;;;;;;;31.21;31.68;96362.38;5054087;28;20135;-60
2022/06/24 07:13:06;;;;;;;7.35;1.95;;;;;;;30.99;29.19;96359.69;5054169;28;20094;-60
2022/06/24 07:15:34;;;;;;;3.25;1.70;;;;;;;30.72;29.58;96362.09;5054035;28;20048;-60
2022/06/24 07:18:02;;;;;;;1.83;1.60;;;;;;;30.16;29.58;96362.66;5054134;28;20056;-60
2022/06/24 07:20:29;;;;;;;3.70;1.85;;;;;;;29.33;31.49;96370.53;5054198;28;20045;-60
2022/06/24 07:22:58;;;;;;;7.10;1.35;;;;;;;29.33;32.35;96369.69;5054024;28;20499;-60
2022/06/24 07:25:25;;;;;;;2.47;1.70;;;;;;;28.84;31.59;96371.72;5053903;28;20053;-60
2022/06/24 07:27:52;;;;;;;2.67;1.38;;;;;;;28.21;33.78;96367.16;5053952;28;20103;-60
2022/06/24 07:30:19;;;;;;;7.82;1.70;;;;;;;27.93;35.11;96371.09;5053878;28;20091;-60
2022/06/24 07:32:47;;;;;;;2.90;1.52;;;;;;;28.08;35.13;96370.41;5053913;28;20124;-60
2022/06/24 07:35:15;;;;;;;4.13;1.58;;;;;;;28.10;34.61;96361.16;5053571;28;20052;-60
2022/06/24 07:37:42;;;;;;;3.83;1.80;;;;;;;28.07;39.69;96366.88;5053736;28;20578;-59
2022/06/24 07:40:11;;;;;;;3.25;1.50;;;;;;;28.28;33.79;96351.16;5053751;28;20550;-60
2022/06/24 07:42:39;;;;;;;2.47;1.73;;;;;;;28.47;33.66;96356.13;5053764;28;20053;-60
2022/06/24 07:45:07;;;;;;;3.53;1.70;;;;;;;28.66;33.43;96361.25;5053729;28;20136;-60
2022/06/24 07:47:35;;;;;;;6.38;1.67;;;;;;;28.76;36.72;96356.47;5053674;28;20128;-60
2022/06/24 07:50:03;;;;;;;5.25;1.70;;;;;;;28.40;34.39;96354.31;5053461;28;20479;-60
2022/06/24 07:52:30;;;;;;;2.40;1.70;;;;;;;28.23;33.72;96355.22;5053659;28;20098;-60
2022/06/24 07:57:39;;;;;;;4.35;1.55;;;;;;;28.06;36.71;96346.38;5053281;28;20049;-60
2022/06/24 08:00:08;;;;;;;2.35;1.30;;;;;;;28.02;36.73;96350.41;5053467;28;20080;-60
2022/06/24 08:02:35;;;;;;;4.85;1.55;;;;;;;28.12;37.64;96347.53;5053405;28;20099;-60
2022/06/24 08:05:02;;;;;;;4.53;1.73;;;;;;;28.30;35.50;96352.69;5053309;28;20548;-60
2022/06/24 08:07:29;;;;;;;5.68;1.75;;;;;;;28.65;34.33;96352.31;5053187;28;20053;-60
2022/06/24 08:09:57;;;;;;;3.35;1.60;;;;;;;28.97;35.61;96349.63;5053223;28;20103;-60
2022/06/24 08:12:25;;;;;;;2.63;1.52;;;;;;;29.20;35.85;96348.78;5053177;28;20048;-60
2022/06/24 08:14:53;;;;;;;2.70;1.58;;;;;;;29.06;35.71;96353.09;5052806;28;20539;-60
2022/06/24 08:17:23;;;;;;;7.88;1.70;;;;;;;28.98;35.29;96345.91;5053041;28;20045;-60
2022/06/24 08:19:50;;;;;;;2.15;1.70;;;;;;;29.08;35.40;96353.75;5053018;28;20469;-60
2022/06/24 08:22:18;;;;;;;2.67;1.67;;;;;;;29.05;36.49;96351.41;5052986;28;20049;-60
2022/06/24 08:24:46;;;;;;;3.03;1.88;;;;;;;29.16;36.98;96353.66;5053020;28;20091;-60
2022/06/24 08:27:13;;;;;;;3.67;1.65;;;;;;;29.35;34.59;96351.50;5052994;28;20553;-60
2022/06/24 08:29:40;;;;;;;3.83;1.50;;;;;;;29.73;35.20;96362.28;5052964;28;20479;-60
2022/06/24 08:32:09;;;;;;;2.05;1.50;;;;;;;30.07;32.95;96353.81;5052824;28;20064;-60
2022/06/24 08:34:37;;;;;;;2.75;1.30;;;;;;;30.37;33.74;96356.53;5052788;28;20057;-60
2022/06/24 08:37:05;;;;;;;5.78;1.60;;;;;;;30.42;30.53;96348.69;5052943;28;20045;-60
2022/06/24 08:39:32;;;;;;;5.63;1.65;;;;;;;30.09;31.55;96351.75;5052898;28;20548;-60
2022/06/24 08:42:04;;;;;;;7.25;1.92;;;;;;;29.82;30.73;96346.00;5052777;28;20052;-61
2022/06/24 08:44:31;;;;;;;5.13;1.95;;;;;;;29.84;32.82;96339.44;5052845;28;20044;-60
2022/06/24 08:46:58;;;;;;;5.13;1.60;;;;;;;30.09;33.78;96339.13;5052877;28;20041;-60
2022/06/24 08:49:28;;;;;;;5.47;1.85;;;;;;;30.44;32.33;96335.00;5052909;28;20045;-60
2022/06/24 08:51:59;;;;;;;3.67;1.90;;;;;;;30.64;30.75;96335.25;5052710;28;20107;-60
2022/06/24 08:54:29;;;;;;;4.53;1.80;;;;;;;30.40;29.28;96337.25;5052686;28;20361;-60
2022/06/24 08:56:56;;;;;;;7.25;2.03;;;;;;;30.12;31.73;96337.91;5052615;28;20136;-60
2022/06/24 08:59:24;;;;;;;3.33;1.60;;;;;;;29.87;31.94;96340.91;5052661;28;20084;-60
2022/06/24 09:01:51;;;;;;;5.25;1.90;;;;;;;29.61;33.01;96334.09;5052705;28;20463;-60
2022/06/24 09:04:18;;;;;;;2.90;1.80;;;;;;;29.35;32.53;96340.75;5052834;28;20107;-61
2022/06/24 09:06:46;;;;;;;5.15;1.95;;;;;;;29.56;33.62;96344.59;5052686;28;20048;-60
2022/06/24 09:09:13;;;;;;;2.72;1.83;;;;;;;29.95;31.69;96343.50;5052720;28;20045;-60
2022/06/24 09:11:42;;;;;;;4.40;1.80;;;;;;;30.23;34.23;96340.19;5052590;28;20049;-61
2022/06/24 09:14:11;;;;;;;7.25;1.98;;;;;;;30.34;33.47;96335.31;5052696;28;20072;-60
2022/06/24 09:16:38;;;;;;;2.70;1.52;;;;;;;30.38;31.97;96339.31;5052626;28;20494;-60
2022/06/24 09:19:06;;;;;;;4.35;1.77;;;;;;;30.44;31.85;96333.16;5052447;28;20119;-60
2022/06/24 09:21:38;;;;;;;6.15;2.20;;;;;;;30.66;30.69;96341.28;5052436;28;20049;-60
2022/06/24 09:24:08;;;;;;;7.13;2.10;;;;;;;30.61;32.60;96341.03;5052554;28;20383;-60
2022/06/24 09:26:40;;;;;;;4.13;1.60;;;;;;;30.41;31.20;96319.19;5052993;28;20045;-60
2022/06/24 09:29:11;;;;;;;5.43;1.55;;;;;;;30.35;33.06;96327.03;5056181;28;20052;-60
2022/06/24 09:31:39;;;;;;;2.45;1.50;;;;;;;30.55;31.41;96333.69;5056152;28;20391;-60
2022/06/24 09:34:12;;;;;;;4.25;1.90;;;;;;;30.31;31.60;96314.94;5055932;28;20052;-60
2022/06/24 09:36:40;;;;;;;8.88;1.90;;;;;;;30.49;30.25;96313.72;5056060;28;20072;-60
2022/06/24 09:39:13;;;;;;;3.80;1.77;;;;;;;30.26;31.09;96318.22;5055906;28;20045;-60
2022/06/24 09:41:46;;;;;;;4.68;1.63;;;;;;;30.53;32.69;96309.59;5056430;28;20083;-60
2022/06/24 09:44:14;;;;;;;6.00;1.90;;;;;;;30.69;30.69;96307.66;5056121;28;20107;-60
2022/06/24 09:46:42;;;;;;;4.07;1.95;;;;;;;30.84;30.61;96313.88;5056080;28;20072;-60
2022/06/24 09:49:13;;;;;;;3.30;1.90;;;;;;;30.52;31.22;96306.06;5055753;28;20475;-60
2022/06/24 09:51:43;;;;;;;4.07;1.58;;;;;;;30.25;30.12;96304.94;5055778;28;20131;-60
2022/06/24 09:54:12;;;;;;;;;;;;;;;30.34;31.81;96302.97;5056031;28;20045;-60
2022/06/24 09:56:39;;;;;;;2.85;1.70;;;;;;;30.54;29.84;96294.22;5055738;28;19927;-60
2022/06/24 10:01:54;;;;;;;2.55;1.60;;;;;;;31.12;29.22;96296.06;5055699;28;20068;-60
2022/06/24 10:04:23;;;;;;;5.53;1.77;;;;;;;31.31;30.35;96299.09;5055547;28;20055;-60
2022/06/24 10:06:51;;;;;;;4.32;1.52;;;;;;;31.35;30.02;96306.66;5055302;28;20339;-60
2022/06/24 10:09:25;;;;;;;3.15;1.60;;;;;;;30.98;29.20;96311.31;5055515;28;20463;-59
2022/06/24 10:11:53;;;;;;;7.95;2.08;;;;;;;30.58;31.53;96311.72;5055267;28;20056;-60
2022/06/24 10:14:21;;;;;;;3.28;1.83;;;;;;;30.47;33.09;96308.50;5055436;28;20123;-60
2022/06/24 10:16:51;;;;;;;5.80;2.03;;;;;;;30.48;31.86;96307.47;5055480;28;20045;-60
2022/06/24 10:19:20;;;;;;;3.85;1.58;;;;;;;30.56;30.44;96302.97;5055287;28;20064;-60
2022/06/24 10:21:48;;;;;;;2.07;1.40;;;;;;;30.64;30.81;96302.88;5055278;28;20049;-60
2022/06/24 10:24:16;;;;;;;4.45;1.60;;;;;;;30.44;30.86;96311.56;5055452;28;20051;-60
2022/06/24 10:26:47;;;;;;;2.90;1.67;;;;;;;29.77;29.63;96295.38;5055225;28;20053;-61
2022/06/24 10:29:22;;;;;;;3.05;1.63;;;;;;;29.70;30.81;96291.75;5055064;28;20045;-60
2022/06/24 10:32:00;;;;;;;2.35;1.50;;;;;;;29.59;30.39;96288.50;5055094;28;20494;-60
2022/06/24 10:34:36;;;;;;;2.03;1.70;;;;;;;29.62;30.74;96290.81;5054634;28;20544;-60
2022/06/24 10:37:06;;;;;;;4.22;1.90;;;;;;;29.68;31.61;96297.34;5054853;28;20045;-60
2022/06/24 10:39:36;;;;;;;5.32;1.60;;;;;;;29.45;30.43;96295.53;5054646;28;20057;-60
2022/06/24 10:42:06;;;;;;;1.52;1.42;;;;;;;29.28;30.74;96296.72;5054886;28;20048;-60
2022/06/24 10:44:36;;;;;;;2.17;1.75;;;;;;;29.50;31.73;96287.72;5054807;28;20056;-61
2022/06/24 10:47:26;;;;;;;3.25;1.40;;;;;;;29.77;31.59;96287.31;5054825;28;20119;-61
2022/06/24 10:50:00;;;;;;;1.95;1.50;;;;;;;30.04;31.47;96284.94;5054773;28;20080;-60
2022/06/24 10:52:32;;;;;;;6.82;1.90;;;;;;;29.77;30.88;96292.69;5054616;28;20088;-61
2022/06/24 10:55:30;;;;;;;3.85;1.67;;;;;;;29.63;33.78;96292.50;5054663;28;20068;-59
2022/06/24 10:58:01;;;;;;;9.90;1.67;;;;;;;29.57;32.19;96287.84;5054441;28;20045;-61
2022/06/24 11:00:42;;;;;;;2.70;1.70;;;;;;;29.88;32.25;96288.66;5054404;28;20052;-60
2022/06/24 11:03:14;;;;;;;2.17;1.52;;;;;;;30.26;31.59;96291.25;5054458;28;20056;-61
2022/06/24 11:05:42;;;;;;;4.13;1.80;;;;;;;30.38;31.15;96294.31;5054320;28;20095;-60
2022/06/24 11:08:13;;;;;;;4.97;1.90;;;;;;;30.33;29.12;96298.56;5054287;28;20076;-60
2022/06/24 11:10:40;;;;;;;;;;;;;;;30.09;27.18;96289.75;5054513;28;20132;-60
2022/06/24 11:13:10;;;;;;;4.93;1.80;;;;;;;29.74;30.82;96293.06;5054117;28;20012;-60
2022/06/24 11:15:38;;;;;;;3.22;1.77;;;;;;;29.31;31.36;96296.34;5054139;28;20045;-60
2022/06/24 11:18:07;;;;;;;3.15;1.60;;;;;;;29.24;32.56;96294.38;5054055;28;20441;-60
2022/06/24 11:20:37;;;;;;;3.50;1.80;;;;;;;29.28;32.94;96289.47;5053951;28;20403;-60
2022/06/24 11:23:08;;;;;;;3.45;1.27;;;;;;;29.43;30.88;96286.78;5053918;28;20056;-60
2022/06/24 11:25:37;;;;;;;5.32;1.67;;;;;;;29.49;32.25;96285.19;5053989;28;20414;-60
2022/06/24 11:28:04;;;;;;;3.13;1.60;;;;;;;29.58;29.62;96294.91;5053936;28;20136;-60
2022/06/24 11:30:33;;;;;;;6.38;1.70;;;;;;;29.56;31.20;96290.72;5053997;28;20044;-60
2022/06/24 11:33:01;;;;;;;3.03;1.55;;;;;;;29.56;27.96;96296.13;5053656;28;20102;-60
2022/06/24 11:35:30;;;;;;;5.40;1.85;;;;;;;29.56;29.78;96290.72;5053588;28;20136;-60
2022/06/24 11:37:57;;;;;;;2.17;1.40;;;;;;;29.17;30.03;96289.91;5053674;28;20044;-60
2022/06/24 11:40:28;;;;;;;6.35;1.35;;;;;;;29.26;32.28;96300.41;5053803;28;20118;-60
2022/06/24 11:42:56;;;;;;;3.25;1.80;;;;;;;29.59;30.70;96301.13;5053679;28;20122;-60
2022/06/24 11:45:35;;;;;;;4.38;1.50;;;;;;;29.48;28.01;96292.47;5053732;28;20044;-60
2022/06/24 11:48:02;;;;;;;3.42;1.92;;;;;;;29.33;28.35;96295.16;5053564;28;20150;-60
2022/06/24 11:50:30;;;;;;;5.07;1.42;;;;;;;29.45;28.03;96297.38;5052962;28;20053;-60